createdAt,value
2018-08-11T00:01:07.780Z,99990.70
2018-08-11T00:03:36.337Z,99982.14
2018-08-11T00:06:04.944Z,99986.84
2018-08-11T00:08:33.467Z,99980.27
2018-08-11T00:11:02.036Z,99981.73
2018-08-11T00:13:30.551Z,99983.07
2018-08-11T00:15:59.165Z,99985.24
2018-08-11T00:18:27.696Z,99973.20
2018-08-11T00:20:56.283Z,99975.53
2018-08-11T00:23:24.844Z,99977.08
2018-08-11T00:25:53.430Z,99977.33
2018-08-11T00:28:23.048Z,99953.22
2018-08-11T00:30:54.412Z,99971.63
2018-08-11T00:33:22.982Z,99970.63
2018-08-11T00:35:51.801Z,99970.46
2018-08-11T00:38:20.331Z,99970.67
2018-08-11T00:40:49.024Z,99973.21
2018-08-11T00:43:17.607Z,99969.86
2018-08-11T00:45:46.380Z,99970.03
2018-08-11T00:48:15.174Z,99970.96
2018-08-11T00:50:43.942Z,99969.09
2018-08-11T00:53:12.626Z,99971.28
2018-08-11T00:55:41.328Z,99971.37
2018-08-11T00:58:09.952Z,99972.31
2018-08-11T01:00:38.576Z,99973.53
2018-08-11T01:03:07.164Z,99978.34
2018-08-11T01:05:35.873Z,99978.67
2018-08-11T01:08:04.448Z,99984.78
2018-08-11T01:10:33.075Z,99974.81
2018-08-11T01:13:01.604Z,99974.61
2018-08-11T01:15:30.214Z,99973.23
2018-08-11T01:17:58.778Z,99972.70
2018-08-11T01:20:27.423Z,99971.58
2018-08-11T01:22:55.958Z,99970.50
2018-08-11T01:25:24.856Z,99966.15
2018-08-11T01:27:53.408Z,99972.37
2018-08-11T01:30:22.820Z,99975.78
2018-08-11T01:32:51.374Z,99972.66
2018-08-11T01:35:19.997Z,99972.27
2018-08-11T01:37:48.579Z,99970.50
2018-08-11T01:40:17.739Z,99972.75
2018-08-11T01:42:47.413Z,99972.81
2018-08-11T01:45:16.613Z,99974.38
2018-08-11T01:47:45.484Z,99969.72
2018-08-11T01:50:15.184Z,99979.36
2018-08-11T01:52:45.081Z,99972.90
2018-08-11T01:55:15.249Z,99971.78
2018-08-11T01:57:43.953Z,99976.77
2018-08-11T02:00:14.048Z,99969.48
2018-08-11T02:02:42.755Z,99972.03
2018-08-11T02:05:12.344Z,99973.64
2018-08-11T02:07:42.084Z,99976.22
2018-08-11T02:10:15.701Z,99972.59
2018-08-11T02:12:44.683Z,99976.20
2018-08-11T02:15:14.053Z,99979.31
2018-08-11T02:17:42.612Z,99977.20
2018-08-11T02:20:13.503Z,99980.98
2018-08-11T02:22:43.115Z,99982.53
2018-08-11T02:25:11.720Z,99977.53
2018-08-11T02:27:40.489Z,99980.00
2018-08-11T02:30:11.261Z,99973.92
2018-08-11T02:32:40.004Z,99978.87
2018-08-11T02:35:09.164Z,99978.36
2018-08-11T02:37:37.716Z,99982.06
2018-08-11T02:40:07.456Z,99980.42
2018-08-11T02:42:36.277Z,99981.80
2018-08-11T02:45:05.393Z,99979.65
2018-08-11T02:47:34.128Z,99978.94
2018-08-11T02:50:02.705Z,99985.55
2018-08-11T02:52:31.272Z,99984.19
2018-08-11T02:55:00.165Z,99985.28
2018-08-11T02:57:28.805Z,99981.23
2018-08-11T02:59:57.324Z,99987.31
2018-08-11T03:02:25.956Z,99988.63
2018-08-11T03:04:55.200Z,99986.83
2018-08-11T03:07:23.773Z,99990.08
2018-08-11T03:09:52.321Z,99989.41
2018-08-11T03:12:20.872Z,99986.13
2018-08-11T03:14:49.395Z,99981.35
2018-08-11T03:17:17.989Z,99991.33
2018-08-11T03:19:46.568Z,99989.66
2018-08-11T03:22:15.164Z,99989.01
2018-08-11T03:24:43.693Z,99986.77
2018-08-11T03:27:12.237Z,99986.09
2018-08-11T03:29:40.766Z,99985.25
2018-08-11T03:32:09.359Z,99990.62
2018-08-11T03:34:44.377Z,99996.36
2018-08-11T03:37:12.944Z,99991.85
2018-08-11T03:39:41.461Z,99998.18
2018-08-11T03:42:10.051Z,99993.52
2018-08-11T03:44:38.572Z,99995.00
2018-08-11T03:47:07.160Z,100000.19
2018-08-11T03:49:35.688Z,99995.23
2018-08-11T03:52:04.280Z,99994.33
2018-08-11T03:54:32.825Z,99995.19
2018-08-11T03:57:01.416Z,99996.61
2018-08-11T03:59:29.928Z,99997.98
2018-08-11T04:01:58.484Z,99999.75
2018-08-11T04:04:27.036Z,100004.78
2018-08-11T04:06:55.730Z,100002.72
2018-08-11T04:09:24.289Z,100016.58
2018-08-11T04:11:52.809Z,100012.55
2018-08-11T04:14:21.356Z,100011.23
2018-08-11T04:16:49.877Z,100015.94
2018-08-11T04:19:18.444Z,100016.77
2018-08-11T04:21:47.160Z,100020.70
2018-08-11T04:24:15.734Z,100026.80
2018-08-11T04:26:44.263Z,100025.58
2018-08-11T04:29:12.904Z,100028.48
2018-08-11T04:31:41.421Z,100028.56
2018-08-11T04:34:09.986Z,100035.12
2018-08-11T04:36:38.512Z,100033.59
2018-08-11T04:39:08.677Z,100033.75
2018-08-11T04:41:37.876Z,100034.77
2018-08-11T04:44:06.449Z,100036.93
2018-08-11T04:46:34.975Z,100035.51
2018-08-11T04:49:03.564Z,100040.87
2018-08-11T04:51:32.098Z,100037.91
2018-08-11T04:54:01.015Z,100044.28
2018-08-11T04:56:29.559Z,100040.84
2018-08-11T04:58:58.177Z,100046.96
2018-08-11T05:01:26.708Z,100048.66
2018-08-11T05:03:55.940Z,100049.01
2018-08-11T05:06:24.480Z,100051.68
2018-08-11T05:08:53.033Z,100058.17
2018-08-11T05:11:21.611Z,100058.82
2018-08-11T05:13:50.280Z,100054.47
2018-08-11T05:16:18.805Z,100066.16
2018-08-11T05:18:47.341Z,100060.98
2018-08-11T05:21:15.869Z,100064.16
2018-08-11T05:23:44.401Z,100061.88
2018-08-11T05:26:12.963Z,100070.13
2018-08-11T05:28:41.815Z,100066.38
2018-08-11T05:31:10.328Z,100068.81
2018-08-11T05:33:38.899Z,100071.68
2018-08-11T05:36:07.964Z,100077.82
2018-08-11T05:38:36.856Z,100079.39
2018-08-11T05:41:05.443Z,100076.26
2018-08-11T05:43:34.198Z,100070.27
2018-08-11T05:46:02.820Z,100070.51
2018-08-11T05:48:31.400Z,100075.95
2018-08-11T05:50:59.916Z,100082.94
2018-08-11T05:53:35.438Z,100082.31
2018-08-11T05:56:04.230Z,100087.70
2018-08-11T05:58:32.781Z,100084.28
2018-08-11T06:01:01.336Z,100084.56
2018-08-11T06:03:29.848Z,100090.23
2018-08-11T06:05:58.385Z,100093.72
2018-08-11T06:08:26.899Z,100102.36
2018-08-11T06:10:56.169Z,100092.77
2018-08-11T06:13:24.694Z,100095.38
2018-08-11T06:15:53.244Z,100100.08
2018-08-11T06:18:21.755Z,100105.13
2018-08-11T06:20:50.292Z,100103.83
2018-08-11T06:23:18.828Z,100101.92
2018-08-11T06:25:47.727Z,100108.59
2018-08-11T06:28:16.261Z,100108.06
2018-08-11T06:30:45.096Z,100107.22
2018-08-11T06:33:13.625Z,100112.41
2018-08-11T06:35:42.542Z,100107.59
2018-08-11T06:38:11.830Z,100104.23
2018-08-11T06:40:40.512Z,100108.31
2018-08-11T06:43:08.997Z,100103.85
2018-08-11T06:45:37.672Z,100108.92
2018-08-11T06:48:06.898Z,100102.52
2018-08-11T06:50:35.484Z,100109.43
2018-08-11T06:53:04.048Z,100096.35
2018-08-11T06:55:32.953Z,100104.39
2018-08-11T06:58:01.598Z,100100.38
2018-08-11T07:00:31.888Z,100112.70
2018-08-11T07:03:04.171Z,100108.68
2018-08-11T07:05:34.618Z,100104.02
2018-08-11T07:08:03.207Z,100113.00
2018-08-11T07:10:31.740Z,100108.45
2018-08-11T07:13:00.288Z,100103.64
2018-08-11T07:15:28.861Z,100110.77
2018-08-11T07:17:57.673Z,100110.00
2018-08-11T07:20:26.304Z,100114.06
2018-08-11T07:22:54.792Z,100103.02
2018-08-11T07:25:23.347Z,100111.92
2018-08-11T07:27:51.848Z,100117.99
2018-08-11T07:30:20.459Z,100114.73
2018-08-11T07:32:48.941Z,100124.98
2018-08-11T07:35:17.539Z,100123.22
2018-08-11T07:37:46.085Z,100127.44
2018-08-11T07:40:14.643Z,100119.47
2018-08-11T07:42:43.197Z,100119.03
2018-08-11T07:45:11.739Z,100115.66
2018-08-11T07:47:40.453Z,100115.52
2018-08-11T07:50:09.027Z,100120.02
2018-08-11T07:52:37.908Z,100130.02
2018-08-11T07:55:06.732Z,100124.70
2018-08-11T07:57:35.338Z,100128.68
2018-08-11T08:00:03.936Z,100130.98
2018-08-11T08:02:32.484Z,100132.80
2018-08-11T08:05:03.961Z,100127.26
2018-08-11T08:07:32.525Z,100118.55
2018-08-11T08:10:01.146Z,100119.20
2018-08-11T08:12:29.903Z,100122.73
2018-08-11T08:14:59.100Z,100131.15
2018-08-11T08:17:28.132Z,100135.72
2018-08-11T08:19:57.708Z,100142.09
2018-08-11T08:22:27.613Z,100140.05
2018-08-11T08:24:56.162Z,100140.63
2018-08-11T08:27:24.881Z,100144.82
2018-08-11T08:29:54.241Z,100137.30
2018-08-11T08:32:23.065Z,100131.62
2018-08-11T08:34:51.608Z,100145.69
2018-08-11T08:37:20.181Z,100142.35
2018-08-11T08:39:49.324Z,100143.39
2018-08-11T08:42:17.990Z,100138.61
2018-08-11T08:44:46.513Z,100129.92
2018-08-11T08:47:15.581Z,100129.99
2018-08-11T08:49:44.105Z,100150.16
2018-08-11T08:52:12.701Z,100122.81
2018-08-11T08:54:41.222Z,100134.01
2018-08-11T08:57:09.778Z,100123.53
2018-08-11T08:59:39.928Z,100139.31
2018-08-11T09:02:08.556Z,100139.67
2018-08-11T09:04:37.051Z,100131.52
2018-08-11T09:07:05.614Z,100131.66
2018-08-11T09:09:34.116Z,100126.26
2018-08-11T09:12:02.709Z,100118.59
2018-08-11T09:14:31.202Z,100131.56
2018-08-11T09:16:59.757Z,100136.14
2018-08-11T09:19:28.285Z,100136.25
2018-08-11T09:21:56.840Z,100131.41
2018-08-11T09:24:25.365Z,100152.69
2018-08-11T09:26:53.883Z,100137.64
2018-08-11T09:29:22.441Z,100144.32
2018-08-11T09:31:50.992Z,100141.59
2018-08-11T09:34:19.548Z,100138.95
2018-08-11T09:36:48.064Z,100126.41
2018-08-11T09:39:16.688Z,100136.73
2018-08-11T09:41:45.775Z,100134.20
2018-08-11T09:44:14.585Z,100135.24
2018-08-11T09:46:43.203Z,100131.29
2018-08-11T09:49:11.891Z,100132.15
2018-08-11T09:51:40.447Z,100122.70
2018-08-11T09:54:12.848Z,100132.70
2018-08-11T09:56:41.684Z,100122.30
2018-08-11T09:59:10.277Z,100119.34
2018-08-11T10:01:43.060Z,100107.70
2018-08-11T10:04:11.611Z,100105.47
2018-08-11T10:06:40.392Z,100095.20
2018-08-11T10:09:11.052Z,100101.48
2018-08-11T10:11:39.705Z,100101.59
2018-08-11T10:14:08.965Z,100098.15
2018-08-11T10:16:47.676Z,100088.66
2018-08-11T10:19:16.670Z,100091.94
2018-08-11T10:21:45.184Z,100105.23
2018-08-11T10:24:13.721Z,100105.13
2018-08-11T10:26:42.309Z,100102.23
2018-08-11T10:29:10.841Z,100097.51
2018-08-11T10:31:39.392Z,100078.63
2018-08-11T10:34:09.418Z,100092.39
2018-08-11T10:36:38.049Z,100097.09
2018-08-11T10:39:09.815Z,100101.82
2018-08-11T10:41:38.393Z,100090.70
2018-08-11T10:44:07.008Z,100085.15
2018-08-11T10:46:35.543Z,100078.83
2018-08-11T10:49:04.672Z,100079.26
2018-08-11T10:51:33.184Z,100075.86
2018-08-11T10:54:02.000Z,100077.95
2018-08-11T10:56:31.738Z,100080.25
2018-08-11T10:59:01.609Z,100080.80
2018-08-11T11:01:30.336Z,100078.77
2018-08-11T11:04:00.267Z,100079.53
2018-08-11T11:06:30.388Z,100093.70
2018-08-11T11:08:59.055Z,100078.14
2018-08-11T11:11:27.697Z,100076.47
2018-08-11T11:13:56.633Z,100079.17
2018-08-11T11:16:35.323Z,100078.41
2018-08-11T11:19:04.100Z,100083.20
2018-08-11T11:21:32.736Z,100070.46
2018-08-11T11:24:06.217Z,100071.52
2018-08-11T11:26:34.884Z,100070.55
2018-08-11T11:29:03.459Z,100066.99
2018-08-11T11:31:34.572Z,100066.84
2018-08-11T11:34:04.162Z,100068.16
2018-08-11T11:36:35.605Z,100072.22
2018-08-11T11:39:13.592Z,100070.45
2018-08-11T11:41:42.386Z,100062.51
2018-08-11T11:44:10.911Z,100066.19
2018-08-11T11:46:39.461Z,100053.31
2018-08-11T11:49:08.017Z,100054.09
2018-08-11T11:51:36.583Z,100055.05
2018-08-11T11:54:05.121Z,100046.20
2018-08-11T11:56:34.927Z,100038.81
2018-08-11T11:59:03.512Z,100041.64
2018-08-11T12:01:32.086Z,100042.62
2018-08-11T12:04:01.609Z,100040.37
2018-08-11T12:06:30.176Z,100032.65
2018-08-11T12:08:58.729Z,100041.20
2018-08-11T12:11:27.252Z,100040.89
2018-08-11T12:13:55.823Z,100049.03
2018-08-11T12:16:24.369Z,100040.47
2018-08-11T12:18:53.056Z,100033.69
2018-08-11T12:21:21.580Z,100044.09
2018-08-11T12:23:54.649Z,100023.95
2018-08-11T12:26:23.205Z,100053.44
2018-08-11T12:28:56.638Z,100043.96
2018-08-11T12:31:25.250Z,100054.80
2018-08-11T12:34:00.178Z,100049.22
2018-08-11T12:36:29.058Z,100045.36
2018-08-11T12:38:57.633Z,100048.30
2018-08-11T12:41:26.165Z,100040.27
2018-08-11T12:43:54.829Z,100041.52
2018-08-11T12:46:26.172Z,100031.08
2018-08-11T12:48:54.864Z,100030.20
2018-08-11T12:51:23.405Z,100051.52
2018-08-11T12:53:51.976Z,100044.89
2018-08-11T12:56:20.802Z,100043.55
2018-08-11T12:58:49.388Z,100033.24
2018-08-11T13:01:17.969Z,100038.06
2018-08-11T13:03:46.701Z,100024.95
2018-08-11T13:06:15.593Z,100031.64
2018-08-11T13:08:44.192Z,100025.05
2018-08-11T13:11:13.736Z,100023.12
2018-08-11T13:13:42.488Z,100026.02
2018-08-11T13:16:12.252Z,100028.91
2018-08-11T13:18:41.242Z,100020.77
2018-08-11T13:21:09.856Z,100029.22
2018-08-11T13:23:39.610Z,100020.61
2018-08-11T13:26:08.241Z,100031.80
2018-08-11T13:28:36.793Z,100024.59
2018-08-11T13:31:05.439Z,100030.93
2018-08-11T13:33:34.000Z,100021.36
2018-08-11T13:36:03.332Z,100011.93
2018-08-11T13:38:32.702Z,100022.92
2018-08-11T13:41:02.702Z,100030.05
2018-08-11T13:43:32.305Z,100041.67
2018-08-11T13:46:01.720Z,100014.25
2018-08-11T13:48:30.340Z,100015.31
2018-08-11T13:51:00.010Z,100008.55
2018-08-11T13:53:28.570Z,100000.80
2018-08-11T13:55:57.385Z,100007.11
2018-08-11T13:58:26.513Z,100003.98
2018-08-11T14:00:55.113Z,100006.97
2018-08-11T14:03:25.834Z,99999.89
2018-08-11T14:06:01.585Z,99994.09
2018-08-11T14:08:34.769Z,99989.45
2018-08-11T14:11:09.820Z,99995.47
2018-08-11T14:13:43.422Z,99996.14
2018-08-11T14:16:16.207Z,99991.10
2018-08-11T14:18:49.930Z,99980.97
2018-08-11T14:21:25.523Z,99994.20
2018-08-11T14:24:03.596Z,99989.28
2018-08-11T14:26:40.358Z,99981.99
2018-08-11T14:29:15.334Z,99978.75
2018-08-11T14:31:46.926Z,99973.68
2018-08-11T14:34:22.164Z,99980.03
2018-08-11T14:36:58.226Z,99963.56
2018-08-11T14:39:32.940Z,99974.63
2018-08-11T14:42:08.082Z,99969.06
2018-08-11T14:44:46.328Z,99964.23
2018-08-11T14:47:24.197Z,99969.08
2018-08-11T14:50:04.453Z,99957.58
2018-08-11T14:52:40.610Z,99950.61
2018-08-11T14:55:21.577Z,99953.68
2018-08-11T14:57:58.143Z,99963.72
2018-08-11T15:00:41.070Z,99963.67
2018-08-11T15:03:23.591Z,99947.95
2018-08-11T15:06:05.283Z,99960.00
2018-08-11T15:08:44.757Z,99955.56
2018-08-11T15:11:31.231Z,99953.89
2018-08-11T15:14:17.687Z,99949.94
2018-08-11T15:16:50.689Z,99955.27
2018-08-11T15:19:30.418Z,99956.92
2018-08-11T15:22:06.234Z,99944.20
2018-08-11T15:24:43.202Z,99944.81
2018-08-11T15:27:18.773Z,99944.20
2018-08-11T15:29:57.899Z,99939.93
2018-08-11T15:32:35.823Z,99936.35
2018-08-11T15:35:13.530Z,99936.84
2018-08-11T15:37:53.507Z,99927.25
2018-08-11T15:40:29.993Z,99922.70
2018-08-11T15:43:05.893Z,99919.79
2018-08-11T15:45:42.189Z,99931.68
2018-08-11T15:48:17.853Z,99923.80
2018-08-11T15:50:55.436Z,99921.17
2018-08-11T15:53:31.409Z,99923.66
2018-08-11T15:56:09.486Z,99928.09
2018-08-11T15:58:46.542Z,99922.61
2018-08-11T16:01:15.698Z,99922.78
2018-08-11T16:03:44.265Z,99925.20
2018-08-11T16:06:12.830Z,99921.02
2018-08-11T16:08:52.270Z,99915.34
2018-08-11T16:11:27.286Z,99916.73
2018-08-11T16:14:04.384Z,99911.60
2018-08-11T16:16:43.824Z,99915.83
2018-08-11T16:19:26.883Z,99921.83
2018-08-11T16:22:02.853Z,99915.15
2018-08-11T16:24:44.591Z,99914.80
2018-08-11T16:27:20.225Z,99914.09
2018-08-11T16:29:59.627Z,99920.42
2018-08-11T16:32:36.028Z,99926.96
2018-08-11T16:35:11.125Z,99917.95
2018-08-11T16:40:50.495Z,99904.55
2018-08-11T16:43:27.048Z,99911.42
2018-08-11T16:46:04.484Z,99911.95
2018-08-11T16:48:43.583Z,99906.99
2018-08-11T16:51:20.394Z,99912.30
2018-08-11T16:53:59.335Z,99920.27
2018-08-11T16:56:33.790Z,99914.31
2018-08-11T16:59:07.708Z,99916.34
2018-08-11T17:01:41.239Z,99916.52
2018-08-11T17:04:17.963Z,99916.99
2018-08-11T17:06:56.411Z,99918.90
2018-08-11T17:09:35.513Z,99916.39
2018-08-11T17:12:20.418Z,99914.05
2018-08-11T17:14:58.945Z,99911.72
2018-08-11T17:17:34.396Z,99915.50
2018-08-11T17:20:15.513Z,99912.31
2018-08-11T17:22:52.987Z,99908.13
2018-08-11T17:25:29.514Z,99913.62
2018-08-11T17:28:04.191Z,99901.48
2018-08-11T17:30:45.606Z,99903.62
2018-08-11T17:33:22.602Z,99906.29
2018-08-11T17:35:57.387Z,99908.01
2018-08-11T17:38:31.162Z,99899.00
2018-08-11T17:41:09.810Z,99898.81
2018-08-11T17:43:54.023Z,99893.77
2018-08-11T17:46:37.602Z,99898.50
2018-08-11T17:49:20.209Z,99893.81
2018-08-11T17:51:59.285Z,99896.48
2018-08-11T17:54:36.685Z,99891.73
2018-08-11T17:57:12.506Z,99897.44
2018-08-11T17:59:52.409Z,99893.77
2018-08-11T18:02:34.051Z,99893.10
2018-08-11T18:05:14.126Z,99893.22
2018-08-11T18:07:48.241Z,99888.45
2018-08-11T18:10:23.906Z,99887.10
2018-08-11T18:13:08.334Z,99885.63
2018-08-11T18:15:41.879Z,99895.54
2018-08-11T18:18:21.833Z,99887.55
2018-08-11T18:21:03.568Z,99890.97
2018-08-11T18:23:46.414Z,99894.16
2018-08-11T18:26:22.949Z,99892.32
2018-08-11T18:28:58.271Z,99894.63
2018-08-11T18:31:32.149Z,99887.39
2018-08-11T18:34:00.688Z,99892.53
2018-08-11T18:36:30.591Z,99896.61
2018-08-11T18:39:04.722Z,99896.31
2018-08-11T18:41:36.650Z,99896.94
2018-08-11T18:44:10.370Z,99893.61
2018-08-11T18:46:43.343Z,99891.89
2018-08-11T18:49:17.464Z,99892.66
2018-08-11T18:51:49.930Z,99899.67
2018-08-11T18:54:23.762Z,99894.19
2018-08-11T18:56:55.851Z,99889.78
2018-08-11T18:59:28.684Z,99894.02
2018-08-11T19:02:02.694Z,99895.52
2018-08-11T19:04:35.918Z,99891.55
2018-08-11T19:07:16.793Z,99892.77
2018-08-11T19:09:50.226Z,99887.95
2018-08-11T19:12:24.680Z,99891.22
2018-08-11T19:14:53.349Z,99890.99
2018-08-11T19:17:21.913Z,99891.95
2018-08-11T19:19:50.482Z,99903.45
2018-08-11T19:22:19.009Z,99896.04
2018-08-11T19:24:47.580Z,99892.92
2018-08-11T19:27:16.153Z,99894.29
2018-08-11T19:29:51.498Z,99898.03
2018-08-11T19:32:25.188Z,99901.58
2018-08-11T19:35:00.733Z,99899.09
2018-08-11T19:37:29.735Z,99899.86
2018-08-11T19:40:00.186Z,99893.19
2018-08-11T19:42:29.428Z,99887.34
2018-08-11T19:44:57.988Z,99897.14
2018-08-11T19:47:26.685Z,99899.61
2018-08-11T19:49:55.321Z,99897.81
2018-08-11T19:52:23.869Z,99899.98
2018-08-11T19:54:52.452Z,99899.11
2018-08-11T19:57:21.097Z,99907.94
2018-08-11T19:59:49.697Z,99899.47
2018-08-11T20:02:18.272Z,99895.70
2018-08-11T20:04:46.864Z,99895.47
2018-08-11T20:07:15.462Z,99904.63
2018-08-11T20:09:44.041Z,99901.86
2018-08-11T20:12:12.620Z,99902.09
2018-08-11T20:14:41.433Z,99909.23
2018-08-11T20:17:10.644Z,99905.23
2018-08-11T20:19:39.638Z,99904.72
2018-08-11T20:22:19.968Z,99901.64
2018-08-11T20:24:48.768Z,99904.26
2018-08-11T20:27:17.796Z,99907.63
2018-08-11T20:29:46.592Z,99909.83
2018-08-11T20:32:15.969Z,99908.02
2018-08-11T20:34:44.753Z,99906.05
2018-08-11T20:37:13.768Z,99904.98
2018-08-11T20:39:42.978Z,99906.06
2018-08-11T20:42:13.663Z,99906.16
2018-08-11T20:44:42.268Z,99906.77
2018-08-11T20:47:10.896Z,99905.06
2018-08-11T20:49:39.491Z,99906.13
2018-08-11T20:52:10.298Z,99910.83
2018-08-11T20:54:42.881Z,99911.17
2018-08-11T20:57:12.808Z,99905.15
2018-08-11T20:59:41.351Z,99909.39
2018-08-11T21:02:10.208Z,99903.30
2018-08-11T21:04:38.929Z,99907.76
2018-08-11T21:07:07.485Z,99904.67
2018-08-11T21:09:39.685Z,99906.80
2018-08-11T21:12:09.149Z,99909.53
2018-08-11T21:14:37.752Z,99905.05
2018-08-11T21:17:06.910Z,99897.69
2018-08-11T21:19:35.458Z,99900.94
2018-08-11T21:22:04.334Z,99900.64
2018-08-11T21:24:32.886Z,99900.38
2018-08-11T21:27:03.001Z,99895.15
2018-08-11T21:29:31.636Z,99904.23
2018-08-11T21:32:01.962Z,99900.02
2018-08-11T21:34:30.559Z,99897.02
2018-08-11T21:37:01.672Z,99891.44
2018-08-11T21:39:30.204Z,99893.59
2018-08-11T21:41:58.760Z,99892.19
2018-08-11T21:44:27.304Z,99889.08
2018-08-11T21:46:55.869Z,99887.92
2018-08-11T21:49:24.455Z,99887.05
2018-08-11T21:51:53.112Z,99887.61
2018-08-11T21:54:21.677Z,99887.34
2018-08-11T21:56:50.320Z,99887.80
2018-08-11T21:59:18.903Z,99893.02
2018-08-11T22:01:47.490Z,99892.66
2018-08-11T22:04:16.048Z,99889.81
2018-08-11T22:06:47.159Z,99884.10
2018-08-11T22:09:15.980Z,99881.97
2018-08-11T22:11:49.464Z,99877.46
2018-08-11T22:14:17.972Z,99878.30
2018-08-11T22:16:46.856Z,99877.20
2018-08-11T22:19:18.701Z,99870.16
2018-08-11T22:21:47.288Z,99863.33
2018-08-11T22:24:20.343Z,99856.39
2018-08-11T22:26:48.973Z,99861.77
2018-08-11T22:29:17.625Z,99850.55
2018-08-11T22:31:48.931Z,99852.39
2018-08-11T22:34:18.669Z,99851.28
2018-08-11T22:36:47.228Z,99850.28
2018-08-11T22:39:15.773Z,99855.60
2018-08-11T22:41:44.327Z,99853.03
2018-08-11T22:44:13.096Z,99858.11
2018-08-11T22:46:41.669Z,99852.53
2018-08-11T22:49:11.485Z,99856.30
2018-08-11T22:51:41.105Z,99860.30
2018-08-11T22:54:09.664Z,99859.20
2018-08-11T22:56:38.209Z,99856.97
2018-08-11T22:59:06.841Z,99852.67
2018-08-11T23:01:38.626Z,99847.78
2018-08-11T23:04:07.224Z,99849.80
2018-08-11T23:06:35.776Z,99849.73
2018-08-11T23:09:06.191Z,99849.80
2018-08-11T23:11:34.859Z,99847.05
2018-08-11T23:14:04.569Z,99844.12
2018-08-11T23:16:34.050Z,99851.28
2018-08-11T23:19:02.700Z,99843.98
2018-08-11T23:21:31.230Z,99849.86
2018-08-11T23:23:59.909Z,99845.44
2018-08-11T23:26:29.184Z,99840.36
2018-08-11T23:28:57.801Z,99840.34
2018-08-11T23:31:26.427Z,99843.23
2018-08-11T23:33:54.984Z,99840.45
2018-08-11T23:36:23.525Z,99838.63
2018-08-11T23:38:52.093Z,99842.02
2018-08-11T23:41:20.620Z,99835.75
2018-08-11T23:43:49.197Z,99838.48
2018-08-11T23:46:17.761Z,99832.80
2018-08-11T23:48:46.364Z,99834.60
2018-08-11T23:51:14.963Z,99835.08
2018-08-11T23:53:43.591Z,99829.27
2018-08-11T23:56:12.223Z,99831.77
2018-08-11T23:58:41.514Z,99830.05
